createdAt,value
2019-04-01T00:02:17.264Z,101829.70
2019-04-01T00:04:43.606Z,101825.84
2019-04-01T00:07:09.840Z,101827.41
2019-04-01T00:09:36.517Z,101828.27
2019-04-01T00:12:03.827Z,101831.11
2019-04-01T00:14:29.951Z,101827.42
2019-04-01T00:16:56.087Z,101834.08
2019-04-01T00:19:22.476Z,101822.65
2019-04-01T00:21:48.828Z,101825.47
2019-04-01T00:24:15.070Z,101823.99
2019-04-01T00:26:41.288Z,101818.35
2019-04-01T00:29:07.615Z,101824.05
2019-04-01T00:31:33.864Z,101825.28
2019-04-01T00:34:00.004Z,101814.36
2019-04-01T00:36:26.177Z,101821.42
2019-04-01T00:38:52.439Z,101824.84
2019-04-01T00:41:18.719Z,101826.41
2019-04-01T00:43:55.445Z,101828.27
2019-04-01T00:46:22.026Z,101826.24
2019-04-01T00:48:48.306Z,101817.50
2019-04-01T00:51:14.642Z,101821.64
2019-04-01T00:53:41.006Z,101817.06
2019-04-01T00:56:07.147Z,101816.17
2019-04-01T00:58:33.500Z,101817.28
2019-04-01T01:00:59.808Z,101811.17
2019-04-01T01:03:26.055Z,101817.83
2019-04-01T01:05:53.171Z,101812.41
2019-04-01T01:08:19.308Z,101813.45
2019-04-01T01:10:45.407Z,101812.56
2019-04-01T01:13:11.516Z,101807.20
2019-04-01T01:15:37.648Z,101804.57
2019-04-01T01:18:03.904Z,101802.27
2019-04-01T01:20:30.150Z,101805.11
2019-04-01T01:22:56.468Z,101797.75
2019-04-01T01:25:22.768Z,101797.27
2019-04-01T01:27:49.116Z,101794.55
2019-04-01T01:30:15.536Z,101800.06
2019-04-01T01:32:41.785Z,101794.30
2019-04-01T01:35:08.596Z,101794.48
2019-04-01T01:37:34.821Z,101789.82
2019-04-01T01:40:01.259Z,101790.17
2019-04-01T01:42:28.482Z,101789.64
2019-04-01T01:44:54.658Z,101786.89
2019-04-01T01:47:20.879Z,101781.70
2019-04-01T01:49:47.113Z,101780.37
2019-04-01T01:52:13.221Z,101773.36
2019-04-01T01:54:39.452Z,101776.61
2019-04-01T01:57:05.646Z,101774.34
2019-04-01T01:59:31.885Z,101773.31
2019-04-01T02:01:58.032Z,101774.92
2019-04-01T02:04:24.345Z,101777.71
2019-04-01T02:06:50.774Z,101775.45
2019-04-01T02:09:17.066Z,101775.67
2019-04-01T02:11:43.336Z,101770.84
2019-04-01T02:14:09.636Z,101768.75
2019-04-01T02:16:35.857Z,101773.72
2019-04-01T02:19:02.794Z,101774.34
2019-04-01T02:21:29.070Z,101769.20
2019-04-01T02:23:55.201Z,101765.39
2019-04-01T02:26:21.297Z,101768.71
2019-04-01T02:28:47.400Z,101770.96
2019-04-01T02:31:13.666Z,101765.33
2019-04-01T02:33:39.778Z,101770.25
2019-04-01T02:36:06.079Z,101769.05
2019-04-01T02:38:32.348Z,101769.67
2019-04-01T02:40:58.710Z,101768.42
2019-04-01T02:43:25.071Z,101776.18
2019-04-01T02:45:51.470Z,101773.57
2019-04-01T02:48:17.818Z,101772.65
2019-04-01T02:50:44.135Z,101774.97
2019-04-01T02:53:10.235Z,101776.81
2019-04-01T02:55:36.535Z,101774.97
2019-04-01T02:58:03.007Z,101773.98
2019-04-01T03:00:29.383Z,101778.06
2019-04-01T03:02:55.609Z,101775.23
2019-04-01T03:05:21.816Z,101771.64
2019-04-01T03:07:48.015Z,101771.11
2019-04-01T03:10:14.457Z,101774.51
2019-04-01T03:12:40.688Z,101770.81
2019-04-01T03:15:07.136Z,101768.55
2019-04-01T03:17:33.266Z,101767.66
2019-04-01T03:19:59.640Z,101766.92
2019-04-01T03:22:25.896Z,101768.97
2019-04-01T03:24:52.109Z,101763.86
2019-04-01T03:27:18.434Z,101764.12
2019-04-01T03:29:44.600Z,101767.51
2019-04-01T03:32:10.756Z,101765.14
2019-04-01T03:34:36.901Z,101764.95
2019-04-01T03:37:03.079Z,101768.44
2019-04-01T03:39:29.308Z,101770.31
2019-04-01T03:41:55.410Z,101762.84
2019-04-01T03:44:21.726Z,101765.48
2019-04-01T03:46:47.849Z,101764.97
2019-04-01T03:49:14.037Z,101759.81
2019-04-01T03:51:40.467Z,101757.73
2019-04-01T03:54:06.763Z,101760.56
2019-04-01T03:56:33.037Z,101753.89
2019-04-01T03:58:59.333Z,101754.52
2019-04-01T04:01:30.032Z,101757.88
2019-04-01T04:03:53.644Z,101754.34
2019-04-01T04:06:19.963Z,101752.09
2019-04-01T04:08:46.326Z,101759.02
2019-04-01T04:11:12.738Z,101759.30
2019-04-01T04:13:39.051Z,101754.69
2019-04-01T04:16:05.421Z,101754.05
2019-04-01T04:18:31.732Z,101755.82
2019-04-01T04:20:57.949Z,101753.91
2019-04-01T04:23:24.111Z,101749.27
2019-04-01T04:25:50.629Z,101749.55
2019-04-01T04:28:17.255Z,101751.32
2019-04-01T04:30:43.614Z,101754.78
2019-04-01T04:33:09.882Z,101751.70
2019-04-01T04:35:36.030Z,101751.45
2019-04-01T04:38:02.408Z,101758.77
2019-04-01T04:40:28.808Z,101755.31
2019-04-01T04:42:55.243Z,101760.55
2019-04-01T04:45:21.619Z,101767.98
2019-04-01T04:47:47.961Z,101762.34
2019-04-01T04:50:14.211Z,101755.91
2019-04-01T04:52:40.563Z,101759.86
2019-04-01T04:55:06.911Z,101756.90
2019-04-01T04:57:33.215Z,101757.96
2019-04-01T04:59:59.463Z,101761.55
2019-04-01T05:02:25.760Z,101762.80
2019-04-01T05:04:51.963Z,101759.32
2019-04-01T05:07:18.288Z,101760.73
2019-04-01T05:09:45.677Z,101760.37
2019-04-01T05:12:13.248Z,101762.52
2019-04-01T05:14:39.435Z,101757.88
2019-04-01T05:17:05.771Z,101761.95
2019-04-01T05:19:32.440Z,101764.91
2019-04-01T05:21:58.753Z,101761.42
2019-04-01T05:24:25.422Z,101766.53
2019-04-01T05:26:51.857Z,101771.80
2019-04-01T05:29:20.276Z,101766.80
2019-04-01T05:31:47.730Z,101760.16
2019-04-01T05:34:17.679Z,101762.70
2019-04-01T05:36:45.284Z,101770.52
2019-04-01T05:39:11.715Z,101763.05
2019-04-01T05:41:38.025Z,101773.28
2019-04-01T05:44:04.461Z,101771.48
2019-04-01T05:46:30.808Z,101771.94
2019-04-01T05:48:57.403Z,101774.83
2019-04-01T05:51:23.753Z,101768.47
2019-04-01T05:53:50.043Z,101773.72
2019-04-01T05:56:16.354Z,101775.58
2019-04-01T05:58:42.663Z,101772.39
2019-04-01T06:01:10.956Z,101772.61
2019-04-01T06:03:37.366Z,101781.45
2019-04-01T06:06:03.683Z,101771.49
2019-04-01T06:08:30.000Z,101775.43
2019-04-01T06:10:56.507Z,101780.34
2019-04-01T06:13:22.886Z,101774.12
2019-04-01T06:15:49.228Z,101771.05
2019-04-01T06:18:15.517Z,101779.55
2019-04-01T06:20:41.714Z,101775.87
2019-04-01T06:23:07.811Z,101777.56
2019-04-01T06:25:34.181Z,101772.08
2019-04-01T06:28:00.398Z,101778.91
2019-04-01T06:30:26.722Z,101782.30
2019-04-01T06:32:53.179Z,101770.62
2019-04-01T06:35:19.405Z,101773.31
2019-04-01T06:37:45.829Z,101777.98
2019-04-01T06:40:12.112Z,101776.01
2019-04-01T06:42:38.539Z,101774.12
2019-04-01T06:45:06.537Z,101775.05
2019-04-01T06:47:33.462Z,101776.75
2019-04-01T06:49:59.796Z,101775.80
2019-04-01T06:52:26.013Z,101777.98
2019-04-01T06:54:52.215Z,101777.81
2019-04-01T06:57:18.420Z,101775.03
2019-04-01T06:59:45.234Z,101776.87
2019-04-01T07:02:11.448Z,101778.55
2019-04-01T07:04:37.669Z,101779.25
2019-04-01T07:07:17.897Z,101772.69
2019-04-01T07:09:32.626Z,101771.45
2019-04-01T07:11:59.046Z,101772.95
2019-04-01T07:14:25.373Z,101765.19
2019-04-01T07:16:51.602Z,101752.52
2019-04-01T07:19:18.018Z,101762.20
2019-04-01T07:21:44.329Z,101754.28
2019-04-01T07:24:10.832Z,101761.48
2019-04-01T07:26:36.955Z,101762.90
2019-04-01T07:29:03.251Z,101756.92
2019-04-01T07:31:29.551Z,101765.62
2019-04-01T07:33:55.895Z,101762.47
2019-04-01T07:36:22.541Z,101753.64
2019-04-01T07:38:49.856Z,101756.69
2019-04-01T07:41:17.276Z,101758.30
2019-04-01T07:43:43.606Z,101753.35
2019-04-01T07:46:09.849Z,101755.47
2019-04-01T07:48:36.067Z,101758.87
2019-04-01T07:51:02.402Z,101748.65
2019-04-01T07:53:28.724Z,101750.42
2019-04-01T07:55:55.036Z,101747.33
2019-04-01T07:58:21.615Z,101751.37
2019-04-01T08:00:48.038Z,101745.22
2019-04-01T08:03:14.447Z,101743.64
2019-04-01T08:05:40.664Z,101740.06
2019-04-01T08:08:07.109Z,101745.19
2019-04-01T08:10:33.439Z,101741.98
2019-04-01T08:12:59.735Z,101739.14
2019-04-01T08:15:26.021Z,101739.98
2019-04-01T08:17:52.240Z,101736.50
2019-04-01T08:20:18.767Z,101742.34
2019-04-01T08:22:44.965Z,101739.69
2019-04-01T08:25:11.144Z,101739.61
2019-04-01T08:27:37.438Z,101735.05
2019-04-01T08:30:07.901Z,101732.29
2019-04-01T08:32:34.731Z,101738.33
2019-04-01T08:35:01.593Z,101733.72
2019-04-01T08:37:28.167Z,101734.52
2019-04-01T08:39:54.462Z,101733.83
2019-04-01T08:42:20.834Z,101733.85
2019-04-01T08:44:47.137Z,101733.08
2019-04-01T08:47:13.448Z,101733.31
2019-04-01T08:49:39.889Z,101731.53
2019-04-01T08:52:06.221Z,101723.31
2019-04-01T08:54:32.546Z,101717.52
2019-04-01T08:56:59.169Z,101716.28
2019-04-01T08:59:25.689Z,101713.67
2019-04-01T09:01:52.016Z,101712.78
2019-04-01T09:04:18.529Z,101710.16
2019-04-01T09:06:44.843Z,101703.23
2019-04-01T09:09:11.099Z,101704.95
2019-04-01T09:11:38.626Z,101703.84
2019-04-01T09:14:07.011Z,101703.00
2019-04-01T09:16:33.679Z,101692.27
2019-04-01T09:18:59.895Z,101692.91
2019-04-01T09:21:26.136Z,101683.58
2019-04-01T09:23:52.514Z,101686.33
2019-04-01T09:26:18.806Z,101680.68
2019-04-01T09:28:45.137Z,101679.69
2019-04-01T09:31:11.474Z,101678.32
2019-04-01T09:33:37.702Z,101675.86
2019-04-01T09:36:03.947Z,101675.55
2019-04-01T09:38:30.188Z,101667.87
2019-04-01T09:40:56.476Z,101666.25
2019-04-01T09:43:22.589Z,101665.82
2019-04-01T09:45:48.957Z,101658.69
2019-04-01T09:48:15.185Z,101658.10
2019-04-01T09:50:41.475Z,101644.95
2019-04-01T09:53:07.825Z,101646.70
2019-04-01T09:55:34.162Z,101642.22
2019-04-01T09:58:00.680Z,101640.73
2019-04-01T10:00:26.992Z,101642.13
2019-04-01T10:02:53.337Z,101637.13
2019-04-01T10:05:19.673Z,101635.97
2019-04-01T10:07:46.217Z,101635.64
2019-04-01T10:10:12.745Z,101627.80
2019-04-01T10:12:38.858Z,101626.75
2019-04-01T10:15:05.529Z,101619.77
2019-04-01T10:17:32.289Z,101608.02
2019-04-01T10:20:00.855Z,101617.20
2019-04-01T10:22:26.776Z,101596.40
2019-04-01T10:24:53.075Z,101594.67
2019-04-01T10:27:19.311Z,101593.66
2019-04-01T10:29:45.462Z,101582.36
2019-04-01T10:32:11.697Z,101581.29
2019-04-01T10:34:38.058Z,101594.12
2019-04-01T10:37:04.477Z,101579.09
2019-04-01T10:39:30.957Z,101572.19
2019-04-01T10:41:57.310Z,101564.37
2019-04-01T10:44:23.701Z,101561.09
2019-04-01T10:46:50.008Z,101571.33
2019-04-01T10:49:16.578Z,101558.98
2019-04-01T10:51:42.856Z,101561.13
2019-04-01T10:54:09.146Z,101558.97
2019-04-01T10:56:36.045Z,101555.78
2019-04-01T10:59:02.481Z,101555.28
2019-04-01T11:01:28.825Z,101546.22
2019-04-01T11:03:55.140Z,101531.50
2019-04-01T11:06:21.880Z,101537.16
2019-04-01T11:08:48.093Z,101532.89
2019-04-01T11:11:14.296Z,101527.06
2019-04-01T11:13:40.522Z,101526.61
2019-04-01T11:16:06.856Z,101524.11
2019-04-01T11:18:33.254Z,101524.00
2019-04-01T11:20:59.434Z,101521.88
2019-04-01T11:23:25.761Z,101518.78
2019-04-01T11:25:51.880Z,101509.55
2019-04-01T11:28:18.210Z,101519.41
2019-04-01T11:30:44.670Z,101521.16
2019-04-01T11:33:11.117Z,101512.37
2019-04-01T11:35:37.353Z,101503.88
2019-04-01T11:38:03.759Z,101505.00
2019-04-01T11:40:30.118Z,101493.97
2019-04-01T11:42:56.928Z,101503.05
2019-04-01T11:45:23.289Z,101491.89
2019-04-01T11:47:49.723Z,101489.33
2019-04-01T11:50:16.105Z,101491.63
2019-04-01T11:52:42.517Z,101482.36
2019-04-01T11:55:09.664Z,101481.86
2019-04-01T11:57:36.174Z,101482.80
2019-04-01T12:00:10.122Z,101480.22
2019-04-01T12:02:34.665Z,101472.58
2019-04-01T12:05:01.042Z,101464.77
2019-04-01T12:07:27.426Z,101457.73
2019-04-01T12:09:53.744Z,101455.12
2019-04-01T12:12:23.813Z,101457.05
2019-04-01T12:14:48.038Z,101455.20
2019-04-01T12:17:14.134Z,101457.63
2019-04-01T12:19:42.262Z,101452.29
2019-04-01T12:22:08.645Z,101445.62
2019-04-01T12:24:35.250Z,101445.19
2019-04-01T12:27:01.553Z,101430.34
2019-04-01T12:29:27.668Z,101429.73
2019-04-01T12:31:53.796Z,101423.36
2019-04-01T12:34:20.611Z,101418.81
2019-04-01T12:36:48.371Z,101414.52
2019-04-01T12:39:15.353Z,101414.22
2019-04-01T12:41:41.428Z,101409.98
2019-04-01T12:44:07.659Z,101402.62
2019-04-01T12:46:34.273Z,101403.04
2019-04-01T12:49:00.475Z,101402.78
2019-04-01T12:51:27.068Z,101399.25
2019-04-01T12:53:53.366Z,101395.61
2019-04-01T12:56:19.571Z,101389.97
2019-04-01T12:58:45.706Z,101384.55
2019-04-01T13:01:12.006Z,101379.59
2019-04-01T13:03:38.112Z,101378.88
2019-04-01T13:06:04.242Z,101372.36
2019-04-01T13:08:30.461Z,101374.33
2019-04-01T13:10:56.835Z,101364.61
2019-04-01T13:13:23.316Z,101351.80
2019-04-01T13:15:49.828Z,101344.80
2019-04-01T13:18:16.062Z,101341.08
2019-04-01T13:20:42.364Z,101343.84
2019-04-01T13:23:08.993Z,101336.40
2019-04-01T13:25:35.278Z,101336.70
2019-04-01T13:28:01.504Z,101326.58
2019-04-01T13:30:27.738Z,101332.91
2019-04-01T13:32:54.011Z,101319.18
2019-04-01T13:35:20.122Z,101314.05
2019-04-01T13:37:46.944Z,101314.54
2019-04-01T13:40:13.421Z,101315.86
2019-04-01T13:42:39.514Z,101306.25
2019-04-01T13:45:05.899Z,101306.92
2019-04-01T13:47:32.136Z,101301.42
2019-04-01T13:49:58.258Z,101304.56
2019-04-01T13:52:24.510Z,101301.42
2019-04-01T13:54:50.850Z,101297.42
2019-04-01T13:57:17.072Z,101297.42
2019-04-01T13:59:49.570Z,101288.90
2019-04-01T14:02:11.313Z,101285.45
2019-04-01T14:04:37.667Z,101279.71
2019-04-01T14:07:03.996Z,101270.66
2019-04-01T14:09:30.961Z,101274.05
2019-04-01T14:11:57.580Z,101273.47
2019-04-01T14:14:23.938Z,101264.68
2019-04-01T14:16:50.270Z,101269.89
2019-04-01T14:19:16.647Z,101266.80
2019-04-01T14:21:42.921Z,101257.75
2019-04-01T14:24:09.250Z,101257.59
2019-04-01T14:26:35.428Z,101244.06
2019-04-01T14:29:01.535Z,101244.13
2019-04-01T14:31:27.893Z,101244.52
2019-04-01T14:33:54.239Z,101236.13
2019-04-01T14:36:20.401Z,101232.05
2019-04-01T14:38:46.745Z,101226.98
2019-04-01T14:41:13.263Z,101217.92
2019-04-01T14:43:40.285Z,101220.98
2019-04-01T14:46:06.741Z,101215.73
2019-04-01T14:48:33.102Z,101210.88
2019-04-01T14:50:59.346Z,101202.34
2019-04-01T14:53:25.566Z,101203.68
2019-04-01T14:55:51.972Z,101203.09
2019-04-01T14:58:18.211Z,101190.95
2019-04-01T15:00:46.352Z,101190.25
2019-04-01T15:03:12.617Z,101190.61
2019-04-01T15:05:38.855Z,101190.33
2019-04-01T15:08:05.179Z,101181.17
2019-04-01T15:10:31.512Z,101176.66
2019-04-01T15:13:05.773Z,101169.45
2019-04-01T15:15:27.178Z,101174.50
2019-04-01T15:17:53.283Z,101166.88
2019-04-01T15:20:19.623Z,101166.60
2019-04-01T15:22:45.856Z,101161.39
2019-04-01T15:25:13.953Z,101159.40
2019-04-01T15:27:40.156Z,101155.81
2019-04-01T15:30:07.974Z,101154.70
2019-04-01T15:32:34.373Z,101146.93
2019-04-01T15:35:00.623Z,101140.73
2019-04-01T15:37:27.041Z,101133.38
2019-04-01T15:39:53.134Z,101136.44
2019-04-01T15:42:19.563Z,101144.58
2019-04-01T15:44:45.878Z,101137.29
2019-04-01T15:47:12.330Z,101131.09
2019-04-01T15:49:40.091Z,101121.93
2019-04-01T15:52:07.697Z,101121.33
2019-04-01T15:54:33.984Z,101120.98
2019-04-01T15:57:00.457Z,101122.86
2019-04-01T15:59:26.810Z,101121.05
2019-04-01T16:01:54.243Z,101116.41
2019-04-01T16:04:20.969Z,101113.74
2019-04-01T16:06:47.164Z,101109.12
2019-04-01T16:09:13.301Z,101108.09
2019-04-01T16:11:39.498Z,101095.50
2019-04-01T16:14:05.852Z,101097.05
2019-04-01T16:16:32.075Z,101100.00
2019-04-01T16:18:59.227Z,101094.83
2019-04-01T16:21:26.272Z,101090.89
2019-04-01T16:23:52.688Z,101084.63
2019-04-01T16:26:18.917Z,101078.78
2019-04-01T16:28:45.276Z,101084.80
2019-04-01T16:31:11.551Z,101084.91
2019-04-01T16:33:37.811Z,101091.30
2019-04-01T16:36:04.144Z,101085.79
2019-04-01T16:38:30.275Z,101079.66
2019-04-01T16:40:57.611Z,101075.14
2019-04-01T16:43:24.088Z,101076.92
2019-04-01T16:45:50.373Z,101068.19
2019-04-01T16:48:16.662Z,101078.34
2019-04-01T16:50:43.335Z,101073.72
2019-04-01T16:53:09.596Z,101068.73
2019-04-01T16:55:36.265Z,101062.88
2019-04-01T16:58:04.110Z,101059.00
2019-04-01T17:00:30.434Z,101055.89
2019-04-01T17:02:56.687Z,101059.20
2019-04-01T17:05:32.010Z,101062.58
2019-04-01T17:07:58.253Z,101055.16
2019-04-01T17:10:24.651Z,101051.80
2019-04-01T17:12:51.102Z,101045.62
2019-04-01T17:15:17.647Z,101051.37
2019-04-01T17:17:43.976Z,101046.47
2019-04-01T17:20:10.475Z,101047.10
2019-04-01T17:22:36.670Z,101040.06
2019-04-01T17:25:04.857Z,101050.06
2019-04-01T17:27:31.067Z,101046.46
2019-04-01T17:29:57.366Z,101042.05
2019-04-01T17:32:23.643Z,101046.44
2019-04-01T17:34:49.810Z,101045.73
2019-04-01T17:37:16.236Z,101045.36
2019-04-01T17:39:42.472Z,101044.70
2019-04-01T17:42:08.689Z,101035.70
2019-04-01T17:44:35.061Z,101030.09
2019-04-01T17:47:01.390Z,101032.27
2019-04-01T17:49:28.724Z,101031.08
2019-04-01T17:51:56.337Z,101034.66
2019-04-01T17:54:22.848Z,101033.94
2019-04-01T17:56:49.181Z,101027.74
2019-04-01T17:59:15.781Z,101032.09
2019-04-01T18:01:42.293Z,101032.02
2019-04-01T18:04:08.845Z,101030.27
2019-04-01T18:06:35.065Z,101032.02
2019-04-01T18:09:02.154Z,101027.97
2019-04-01T18:11:30.774Z,101020.16
2019-04-01T18:13:57.121Z,101027.55
2019-04-01T18:16:23.337Z,101031.80
2019-04-01T18:18:49.689Z,101033.53
2019-04-01T18:21:15.925Z,101023.37
2019-04-01T18:23:42.326Z,101028.30
2019-04-01T18:26:08.570Z,101019.25
2019-04-01T18:28:35.091Z,101027.11
2019-04-01T18:31:01.355Z,101028.20
2019-04-01T18:33:27.554Z,101029.80
2019-04-01T18:35:54.360Z,101033.03
2019-04-01T18:38:21.042Z,101032.95
2019-04-01T18:40:47.290Z,101032.31
2019-04-01T18:43:13.624Z,101023.53
2019-04-01T18:45:41.086Z,101035.22
2019-04-01T18:48:07.412Z,101035.22
2019-04-01T18:50:33.766Z,101041.66
2019-04-01T18:53:00.006Z,101035.70
2019-04-01T18:55:26.157Z,101040.07
2019-04-01T18:57:52.575Z,101037.61
2019-04-01T19:00:19.706Z,101037.61
2019-04-01T19:02:46.150Z,101032.53
2019-04-01T19:05:12.841Z,101031.94
2019-04-01T19:07:39.056Z,101031.94
2019-04-01T19:10:06.854Z,101033.48
2019-04-01T19:12:33.371Z,101033.34
2019-04-01T19:15:02.428Z,101038.33
2019-04-01T19:17:27.886Z,101038.33
2019-04-01T19:19:54.006Z,101034.34
2019-04-01T19:22:20.334Z,101034.83
2019-04-01T19:24:46.914Z,101031.25
2019-04-01T19:27:13.286Z,101033.28
2019-04-01T19:29:42.742Z,101033.28
2019-04-01T19:32:09.429Z,101026.14
2019-04-01T19:34:36.152Z,101031.36
2019-04-01T19:37:03.263Z,101029.36
2019-04-01T19:39:30.377Z,101027.37
2019-04-01T19:41:56.878Z,101023.83
2019-04-01T19:44:23.319Z,101027.27
2019-04-01T19:46:49.557Z,101028.42
2019-04-01T19:49:15.877Z,101022.95
2019-04-01T19:51:42.275Z,101025.92
2019-04-01T19:54:08.537Z,101026.55
2019-04-01T19:56:34.992Z,101027.20
2019-04-01T19:59:01.172Z,101023.17
2019-04-01T20:01:29.331Z,101023.23
2019-04-01T20:03:55.777Z,101018.03
2019-04-01T20:06:22.040Z,101022.30
2019-04-01T20:08:49.734Z,101009.90
2019-04-01T20:11:16.190Z,101011.89
2019-04-01T20:13:43.367Z,101011.08
2019-04-01T20:16:10.247Z,101005.60
2019-04-01T20:18:36.961Z,101012.46
2019-04-01T20:21:03.430Z,101004.75
2019-04-01T20:23:29.647Z,101007.52
2019-04-01T20:25:55.969Z,101006.47
2019-04-01T20:28:22.485Z,101004.75
2019-04-01T20:30:48.603Z,101000.67
2019-04-01T20:33:18.196Z,100993.97
2019-04-01T20:35:43.044Z,100990.33
2019-04-01T20:38:09.422Z,100990.26
2019-04-01T20:40:35.744Z,100986.98
2019-04-01T20:43:01.901Z,100985.73
2019-04-01T20:45:28.147Z,100975.02
2019-04-01T20:47:54.534Z,100981.03
2019-04-01T20:50:20.829Z,100980.33
2019-04-01T20:52:48.091Z,100974.28
2019-04-01T20:55:14.610Z,100972.08
2019-04-01T20:57:41.033Z,100968.67
2019-04-01T21:00:09.319Z,100966.22
2019-04-01T21:02:36.634Z,100962.77
2019-04-01T21:05:07.501Z,100959.97
2019-04-01T21:07:33.926Z,100964.67
2019-04-01T21:10:00.269Z,100964.67
2019-04-01T21:12:26.570Z,100956.53
2019-04-01T21:14:56.059Z,100961.48
2019-04-01T21:17:21.860Z,100955.19
2019-04-01T21:19:48.111Z,100958.13
2019-04-01T21:22:14.335Z,100954.31
2019-04-01T21:24:40.636Z,100950.48
2019-04-01T21:27:06.883Z,100949.05
2019-04-01T21:29:33.158Z,100945.39
2019-04-01T21:31:59.489Z,100940.97
2019-04-01T21:34:25.819Z,100936.50
2019-04-01T21:36:51.956Z,100941.19
2019-04-01T21:39:18.096Z,100936.39
2019-04-01T21:41:44.362Z,100932.19
2019-04-01T21:44:10.696Z,100928.60
2019-04-01T21:46:37.033Z,100923.55
2019-04-01T21:49:03.382Z,100913.95
2019-04-01T21:51:29.705Z,100913.80
2019-04-01T21:53:55.926Z,100904.84
2019-04-01T21:56:23.084Z,100907.04
2019-04-01T21:58:49.885Z,100902.59
2019-04-01T22:01:16.886Z,100896.95
2019-04-01T22:03:44.792Z,100898.17
2019-04-01T22:06:11.863Z,100893.52
2019-04-01T22:08:38.096Z,100894.98
2019-04-01T22:11:04.441Z,100885.14
2019-04-01T22:13:30.859Z,100878.13
2019-04-01T22:15:56.998Z,100877.36
2019-04-01T22:18:23.109Z,100867.48
2019-04-01T22:20:49.206Z,100869.84
2019-04-01T22:23:15.562Z,100869.34
2019-04-01T22:25:41.959Z,100868.52
2019-04-01T22:28:08.192Z,100865.00
2019-04-01T22:30:34.503Z,100862.29
2019-04-01T22:33:00.650Z,100859.70
2019-04-01T22:35:38.038Z,100864.16
2019-04-01T22:37:56.224Z,100862.95
2019-04-01T22:40:22.458Z,100855.25
2019-04-01T22:42:48.711Z,100855.55
2019-04-01T22:45:15.063Z,100849.11
2019-04-01T22:47:41.304Z,100852.00
2019-04-01T22:50:07.612Z,100846.81
2019-04-01T22:52:35.267Z,100846.73
2019-04-01T22:55:02.049Z,100840.68
2019-04-01T22:57:28.340Z,100841.97
2019-04-01T22:59:54.472Z,100837.90
2019-04-01T23:02:21.722Z,100835.84
2019-04-01T23:04:48.087Z,100831.00
2019-04-01T23:07:15.308Z,100830.53
2019-04-01T23:09:41.641Z,100836.79
2019-04-01T23:12:07.841Z,100823.45
2019-04-01T23:14:34.061Z,100823.33
2019-04-01T23:17:00.271Z,100819.55
2019-04-01T23:19:26.651Z,100813.19
2019-04-01T23:21:52.877Z,100817.42
2019-04-01T23:24:19.100Z,100813.41
2019-04-01T23:26:45.345Z,100810.36
2019-04-01T23:29:11.568Z,100808.69
2019-04-01T23:31:38.499Z,100806.71
2019-04-01T23:34:04.915Z,100801.03
2019-04-01T23:36:31.184Z,100799.16
2019-04-01T23:38:57.390Z,100794.21
2019-04-01T23:41:23.737Z,100798.31
2019-04-01T23:43:49.806Z,100789.90
2019-04-01T23:46:16.038Z,100794.44
2019-04-01T23:48:42.603Z,100787.73
2019-04-01T23:51:08.974Z,100789.98
2019-04-01T23:53:35.294Z,100784.80
2019-04-01T23:56:01.584Z,100783.16
2019-04-01T23:58:27.692Z,100781.94
